Nearby METAR Reports

 

KBFI - Seattle/Boeing, Washington, USA
Distance from station: S 10mi, 16km
Updated: Tue, 22-Oct-2019 8:53pm PDT
Partly cloudy
Partly cloudy
 Wind from calm
Wind: Calm
Temperature: 54°F , 12°C
Dew Point: 46°F , 8°C
Humidity: 77%
Barometer: 30.42 inHg , 1030.1 hPa
Clouds: Partly cloudy
Visibility: 10 miles , 16 km
Cloud details: Partly cloudy 3700 ft
2019/10/23 03:53 KBFI 230353Z 00000KT 10SM SCT037 12/08 A3042 RMK AO2 SLP302 T01170083
KRNT - Renton, Washington, USA
Distance from station: SSE 14mi, 23km
Updated: Tue, 22-Oct-2019 8:53pm PDT
Haze, Clear
Haze, Clear
 Wind from N
Wind: N 3 mph , 6 km/h
Temperature: 54°F , 12°C
Dew Point: 48°F , 9°C
Humidity: 82%
Barometer: 30.42 inHg , 1030.1 hPa
Summary: Haze
Clouds: Clear
Visibility: 6 miles , 10 km
2019/10/23 03:53 KRNT 230353Z AUTO 01003KT 6SM HZ CLR 12/09 A3042 RMK AO2 SLP306 T01170089
 
KPAE - Everett, Washington, USA
Distance from station: N 15mi, 25km
Updated: Tue, 22-Oct-2019 8:53pm PDT
Few Clouds
Few Clouds
 Wind from varies
Wind: varies 3 mph , 6 km/h
Temperature: 50°F , 10°C
Dew Point: 45°F , 7°C
Humidity: 82%
Barometer: 30.44 inHg , 1030.8 hPa
Clouds: Few Clouds
Visibility: 10 miles , 16 km
Cloud details: Few Clouds 2000 ft
2019/10/23 03:53 KPAE 230353Z AUTO VRB03KT 10SM FEW020 10/07 A3044 RMK AO2 SLP309 T01000072
KSEA - Seattle/Metro, Washington, USA
Distance from station: S 17mi, 27km
Updated: Tue, 22-Oct-2019 8:53pm PDT
Partly cloudy
Partly cloudy
 Wind from NNE
Wind: NNE 7 mph , 11 km/h
Temperature: 54°F , 12°C
Dew Point: 46°F , 8°C
Humidity: 77%
Barometer: 30.42 inHg , 1030.1 hPa
Clouds: Partly cloudy
Visibility: 10 miles , 16 km
Cloud details: Partly cloudy 2800 ft
2019/10/23 03:53 KSEA 230353Z 02006KT 10SM SCT028 12/08 A3042 RMK AO2 SLP308 T01220083 $
 
KPWT - Bremerton Ntnl, Washington, USA
Distance from station: SW 24mi, 39km
Updated: Tue, 22-Oct-2019 8:56pm PDT
Overcast
Overcast
 Wind from calm
Wind: Calm
Temperature: 50°F , 10°C
Dew Point: 48°F , 9°C
Humidity: 94%
Barometer: 30.42 inHg , 1030.1 hPa
Clouds: Overcast
Visibility: 10 miles , 16 km
Cloud details: Overcast 3700 ft
2019/10/23 03:56 KPWT 230356Z AUTO 00000KT 10SM OVC037 10/09 A3042 RMK AO2 SLP322 T01000094 PNO $
KTIW - Tacoma, Washington, USA
Distance from station: SSW 32mi, 52km
Updated: Tue, 22-Oct-2019 9:13pm PDT
Overcast
Overcast
 Wind from calm
Wind: Calm
Temperature: 52°F , 11°C
Dew Point: 50°F , 10°C
Humidity: 94%
Barometer: 30.42 inHg , 1030.1 hPa
Clouds: Overcast
Visibility: 10 miles , 16 km
Cloud details: Partly cloudy 1800 ft
Overcast 4200 ft
2019/10/23 04:13 KTIW 230413Z AUTO 00000KT 10SM SCT018 OVC042 11/10 A3042 RMK AO2 T01060100
 
KAWO - Arlington Muni, Washington, USA
Distance from station: N 33mi, 54km
Updated: Tue, 22-Oct-2019 8:56pm PDT
Partly cloudy
Partly cloudy
 Wind from calm
Wind: Calm
Temperature: 48°F , 9°C
Dew Point: 45°F , 7°C
Humidity: 87%
Barometer: 30.45 inHg , 1031.2 hPa
Clouds: Partly cloudy
Visibility: 10 miles , 16 km
Cloud details: Partly cloudy 2100 ft
Partly cloudy 6000 ft
2019/10/23 03:56 KAWO 230356Z AUTO 00000KT 10SM SCT021 SCT060 09/07 A3045 RMK AO2 SLP315 T00890067 PNO $
KTCM - Tacoma/Mc Chord, Washington, USA
Distance from station: S 41mi, 65km
Updated: Tue, 22-Oct-2019 8:58pm PDT
Mostly cloudy
Mostly cloudy
 Wind from calm
Wind: Calm
Temperature: 50°F , 10°C
Dew Point: 50°F , 10°C
Humidity: 100%
Barometer: 30.41 inHg , 1029.8 hPa
Clouds: Mostly cloudy
Visibility: 10 miles , 16 km
Cloud details: Mostly cloudy 4400 ft
2019/10/23 03:58 KTCM 230358Z AUTO 00000KT 10SM BKN044 10/10 A3041 RMK AO2 SLP302 T00980098 $
 
KPLU - Puyallup/Thun, Washington, USA
Distance from station: S 41mi, 66km
Updated: Tue, 22-Oct-2019 9:15pm PDT
Overcast
Overcast
 Wind from calm
Wind: Calm
Temperature: 52°F , 11°C
Dew Point: 52°F , 11°C
Humidity: 100%
Barometer: 30.41 inHg , 1029.8 hPa
Clouds: Overcast
Visibility: 10 miles , 16 km
Cloud details: Overcast 700 ft
2019/10/23 04:15 KPLU 230415Z AUTO 00000KT 10SM OVC007 11/11 A3041 RMK AO2
KGRF - Fort Lewis/Gray, Washington, USA
Distance from station: SSW 45mi, 72km
Updated: Tue, 22-Oct-2019 8:58pm PDT
Partly cloudy
Partly cloudy
 Wind from SE
Wind: SE 3 mph , 6 km/h
Temperature: 50°F , 10°C
Dew Point: 50°F , 10°C
Humidity: 100%
Barometer: 30.40 inHg , 1029.5 hPa
Clouds: Partly cloudy
Visibility: 10 miles , 16 km
Cloud details: Partly cloudy 4400 ft
2019/10/23 03:58 KGRF 230358Z AUTO 13003KT 10SM SCT044 10/10 A3040 RMK AO2 SLP299 T00950095 $
 
KNUW - Whidbey Is. Nas, Washington, USA
Distance from station: NNW 48mi, 77km
Updated: Tue, 22-Oct-2019 8:56pm PDT
Mostly cloudy
Mostly cloudy
 Wind from calm
Wind: Calm
Temperature: 52°F , 11°C
Dew Point: 46°F , 8°C
Humidity: 82%
Barometer: 30.48 inHg , 1032.2 hPa
Clouds: Mostly cloudy
Visibility: 10 miles , 16 km
Cloud details: Partly cloudy 3600 ft
Mostly cloudy 4400 ft
Mostly cloudy 5500 ft
Mostly cloudy 22000 ft
2019/10/23 03:56 KNUW 230356Z 00000KT 10SM SCT036 BKN044 BKN055 BKN220 11/08 A3048 RMK AO2 SLP319 T01060078
KSHN - Shelton, Washington, USA
Distance from station: SW 50mi, 80km
Updated: Tue, 22-Oct-2019 9:10pm PDT
Overcast
Overcast
 Wind from N
Wind: N 3 mph , 6 km/h
Temperature: 52°F , 11°C
Dew Point: 50°F , 10°C
Humidity: 94%
Barometer: 30.40 inHg , 1029.5 hPa
Clouds: Overcast
Visibility: 9 miles , 14 km
Cloud details: Overcast 1500 ft
2019/10/23 04:10 KSHN 230410Z AUTO 36003KT 9SM OVC015 11/10 A3040 RMK AO2 T01110100